sensor_id;sensor_type;location;lat;lon;timestamp;temperature;humidity
21616;DHT22;10970;48.714;9.584;2023-06-19T00:00:17;21.90;99.90
21616;DHT22;10970;48.714;9.584;2023-06-19T00:02:43;21.90;99.90
21616;DHT22;10970;48.714;9.584;2023-06-19T00:05:09;21.80;99.90
21616;DHT22;10970;48.714;9.584;2023-06-19T00:07:38;21.80;99.90
21616;DHT22;10970;48.714;9.584;2023-06-19T00:10:05;21.80;99.90
21616;DHT22;10970;48.714;9.584;2023-06-19T00:12:31;21.70;99.90
21616;DHT22;10970;48.714;9.584;2023-06-19T00:14:57;21.70;99.90
21616;DHT22;10970;48.714;9.584;2023-06-19T00:17:23;21.60;99.90
21616;DHT22;10970;48.714;9.584;2023-06-19T00:19:52;21.50;99.90
21616;DHT22;10970;48.714;9.584;2023-06-19T00:22:18;21.50;99.90
21616;DHT22;10970;48.714;9.584;2023-06-19T00:24:44;21.50;99.90
21616;DHT22;10970;48.714;9.584;2023-06-19T00:27:10;21.40;99.90
21616;DHT22;10970;48.714;9.584;2023-06-19T00:29:35;21.40;99.90
21616;DHT22;10970;48.714;9.584;2023-06-19T00:32:01;21.40;99.90
21616;DHT22;10970;48.714;9.584;2023-06-19T00:34:29;21.40;99.90
21616;DHT22;10970;48.714;9.584;2023-06-19T00:36:55;21.30;99.90
21616;DHT22;10970;48.714;9.584;2023-06-19T00:39:22;21.30;99.90
21616;DHT22;10970;48.714;9.584;2023-06-19T00:41:48;21.40;99.90
21616;DHT22;10970;48.714;9.584;2023-06-19T00:44:14;21.40;99.90
21616;DHT22;10970;48.714;9.584;2023-06-19T00:46:40;21.40;99.90
21616;DHT22;10970;48.714;9.584;2023-06-19T00:49:07;21.40;99.90
21616;DHT22;10970;48.714;9.584;2023-06-19T00:51:33;21.30;99.90
21616;DHT22;10970;48.714;9.584;2023-06-19T00:53:59;21.40;99.90
21616;DHT22;10970;48.714;9.584;2023-06-19T00:56:25;21.20;99.90
21616;DHT22;10970;48.714;9.584;2023-06-19T00:58:52;21.20;99.90
21616;DHT22;10970;48.714;9.584;2023-06-19T01:01:19;21.10;99.90
21616;DHT22;10970;48.714;9.584;2023-06-19T01:03:46;21.00;99.90
21616;DHT22;10970;48.714;9.584;2023-06-19T01:06:21;21.00;99.90
21616;DHT22;10970;48.714;9.584;2023-06-19T01:09:03;21.00;99.90
21616;DHT22;10970;48.714;9.584;2023-06-19T01:11:37;20.90;99.90
21616;DHT22;10970;48.714;9.584;2023-06-19T01:14:09;20.90;99.90
21616;DHT22;10970;48.714;9.584;2023-06-19T01:16:38;20.80;99.90
21616;DHT22;10970;48.714;9.584;2023-06-19T01:19:05;20.90;99.90
21616;DHT22;10970;48.714;9.584;2023-06-19T01:21:33;20.90;99.90
21616;DHT22;10970;48.714;9.584;2023-06-19T01:23:59;20.90;99.90
21616;DHT22;10970;48.714;9.584;2023-06-19T01:26:24;20.90;99.90
21616;DHT22;10970;48.714;9.584;2023-06-19T01:28:53;20.80;99.90
21616;DHT22;10970;48.714;9.584;2023-06-19T01:32:28;20.80;99.90
21616;DHT22;10970;48.714;9.584;2023-06-19T01:34:27;20.90;99.90
21616;DHT22;10970;48.714;9.584;2023-06-19T01:36:54;21.00;99.90
21616;DHT22;10970;48.714;9.584;2023-06-19T01:39:23;20.90;99.90
21616;DHT22;10970;48.714;9.584;2023-06-19T01:41:50;20.90;99.90
21616;DHT22;10970;48.714;9.584;2023-06-19T01:44:17;20.90;99.90
21616;DHT22;10970;48.714;9.584;2023-06-19T01:46:42;21.00;99.90
21616;DHT22;10970;48.714;9.584;2023-06-19T01:49:08;21.00;99.90
21616;DHT22;10970;48.714;9.584;2023-06-19T01:51:35;21.00;99.90
21616;DHT22;10970;48.714;9.584;2023-06-19T01:54:01;21.00;99.90
21616;DHT22;10970;48.714;9.584;2023-06-19T01:56:27;21.00;99.90
21616;DHT22;10970;48.714;9.584;2023-06-19T01:58:53;21.00;99.90
21616;DHT22;10970;48.714;9.584;2023-06-19T02:01:21;20.90;99.90
21616;DHT22;10970;48.714;9.584;2023-06-19T02:03:46;20.70;99.90
21616;DHT22;10970;48.714;9.584;2023-06-19T02:06:12;20.70;99.90
21616;DHT22;10970;48.714;9.584;2023-06-19T02:08:38;20.60;99.90
21616;DHT22;10970;48.714;9.584;2023-06-19T02:11:03;20.50;99.90
21616;DHT22;10970;48.714;9.584;2023-06-19T02:13:29;20.40;99.90
21616;DHT22;10970;48.714;9.584;2023-06-19T02:15:54;20.40;99.90
21616;DHT22;10970;48.714;9.584;2023-06-19T02:18:20;20.30;99.90
21616;DHT22;10970;48.714;9.584;2023-06-19T02:20:46;20.30;99.90
21616;DHT22;10970;48.714;9.584;2023-06-19T02:23:11;20.30;99.90
21616;DHT22;10970;48.714;9.584;2023-06-19T02:25:37;20.30;99.90
21616;DHT22;10970;48.714;9.584;2023-06-19T02:28:03;20.30;99.90
21616;DHT22;10970;48.714;9.584;2023-06-19T02:30:29;20.30;99.90
21616;DHT22;10970;48.714;9.584;2023-06-19T02:32:54;20.40;99.90
21616;DHT22;10970;48.714;9.584;2023-06-19T02:35:20;20.30;99.90
21616;DHT22;10970;48.714;9.584;2023-06-19T02:37:46;20.30;99.90
21616;DHT22;10970;48.714;9.584;2023-06-19T02:40:13;20.40;99.90
21616;DHT22;10970;48.714;9.584;2023-06-19T02:42:40;20.40;99.90
21616;DHT22;10970;48.714;9.584;2023-06-19T02:45:05;20.40;99.90
21616;DHT22;10970;48.714;9.584;2023-06-19T02:47:32;20.40;99.90
21616;DHT22;10970;48.714;9.584;2023-06-19T02:49:59;20.30;99.90
21616;DHT22;10970;48.714;9.584;2023-06-19T02:52:25;20.30;99.90
21616;DHT22;10970;48.714;9.584;2023-06-19T02:54:51;20.30;99.90
21616;DHT22;10970;48.714;9.584;2023-06-19T02:57:16;20.30;99.90
21616;DHT22;10970;48.714;9.584;2023-06-19T02:59:42;20.30;99.90
21616;DHT22;10970;48.714;9.584;2023-06-19T03:02:08;20.30;99.90
21616;DHT22;10970;48.714;9.584;2023-06-19T03:04:33;20.30;99.90
21616;DHT22;10970;48.714;9.584;2023-06-19T03:06:59;20.40;99.90
21616;DHT22;10970;48.714;9.584;2023-06-19T03:09:25;20.40;99.90
21616;DHT22;10970;48.714;9.584;2023-06-19T03:11:51;20.40;99.90
21616;DHT22;10970;48.714;9.584;2023-06-19T03:14:17;20.30;99.90
21616;DHT22;10970;48.714;9.584;2023-06-19T03:16:42;20.30;99.90
21616;DHT22;10970;48.714;9.584;2023-06-19T03:19:08;20.30;99.90
21616;DHT22;10970;48.714;9.584;2023-06-19T03:21:34;20.40;99.90
21616;DHT22;10970;48.714;9.584;2023-06-19T03:24:00;20.30;99.90
21616;DHT22;10970;48.714;9.584;2023-06-19T03:26:26;20.30;99.90
21616;DHT22;10970;48.714;9.584;2023-06-19T03:28:52;20.30;99.90
21616;DHT22;10970;48.714;9.584;2023-06-19T03:31:18;20.30;99.90
21616;DHT22;10970;48.714;9.584;2023-06-19T03:33:44;20.20;99.90
21616;DHT22;10970;48.714;9.584;2023-06-19T03:36:09;20.30;99.90
21616;DHT22;10970;48.714;9.584;2023-06-19T03:38:36;20.30;99.90
21616;DHT22;10970;48.714;9.584;2023-06-19T03:41:01;20.30;99.90
21616;DHT22;10970;48.714;9.584;2023-06-19T03:43:27;20.30;99.90
21616;DHT22;10970;48.714;9.584;2023-06-19T03:45:53;20.30;99.90
21616;DHT22;10970;48.714;9.584;2023-06-19T03:48:18;20.30;99.90
21616;DHT22;10970;48.714;9.584;2023-06-19T03:50:44;20.30;99.90
21616;DHT22;10970;48.714;9.584;2023-06-19T03:53:10;20.40;99.90
21616;DHT22;10970;48.714;9.584;2023-06-19T03:55:36;20.40;99.90
21616;DHT22;10970;48.714;9.584;2023-06-19T03:58:01;20.40;99.90
21616;DHT22;10970;48.714;9.584;2023-06-19T04:00:27;20.40;99.90
21616;DHT22;10970;48.714;9.584;2023-06-19T04:02:53;20.50;99.90
21616;DHT22;10970;48.714;9.584;2023-06-19T04:05:19;20.50;99.90
21616;DHT22;10970;48.714;9.584;2023-06-19T04:07:47;20.60;99.90
21616;DHT22;10970;48.714;9.584;2023-06-19T04:10:13;20.60;99.90
21616;DHT22;10970;48.714;9.584;2023-06-19T04:12:39;20.60;99.90
21616;DHT22;10970;48.714;9.584;2023-06-19T04:15:06;20.70;99.90
21616;DHT22;10970;48.714;9.584;2023-06-19T04:17:32;20.80;99.90
21616;DHT22;10970;48.714;9.584;2023-06-19T04:19:58;20.80;99.90
21616;DHT22;10970;48.714;9.584;2023-06-19T04:22:23;20.80;99.90
21616;DHT22;10970;48.714;9.584;2023-06-19T04:24:49;20.90;99.90
21616;DHT22;10970;48.714;9.584;2023-06-19T04:27:15;21.00;99.90
21616;DHT22;10970;48.714;9.584;2023-06-19T04:29:40;21.00;99.90
21616;DHT22;10970;48.714;9.584;2023-06-19T04:32:06;21.00;99.90
21616;DHT22;10970;48.714;9.584;2023-06-19T04:34:37;21.10;99.90
21616;DHT22;10970;48.714;9.584;2023-06-19T04:37:03;21.10;99.90
21616;DHT22;10970;48.714;9.584;2023-06-19T04:39:29;21.20;99.90
21616;DHT22;10970;48.714;9.584;2023-06-19T04:41:55;21.20;99.90
21616;DHT22;10970;48.714;9.584;2023-06-19T04:44:20;21.30;99.90
21616;DHT22;10970;48.714;9.584;2023-06-19T04:46:46;21.40;99.90
21616;DHT22;10970;48.714;9.584;2023-06-19T04:49:12;21.40;99.90
21616;DHT22;10970;48.714;9.584;2023-06-19T04:51:39;21.40;99.90
21616;DHT22;10970;48.714;9.584;2023-06-19T04:54:05;21.50;99.90
21616;DHT22;10970;48.714;9.584;2023-06-19T04:56:30;21.60;99.90
21616;DHT22;10970;48.714;9.584;2023-06-19T04:58:57;21.70;99.90
21616;DHT22;10970;48.714;9.584;2023-06-19T05:01:25;21.80;99.90
21616;DHT22;10970;48.714;9.584;2023-06-19T05:03:56;21.90;99.90
21616;DHT22;10970;48.714;9.584;2023-06-19T05:06:23;21.90;99.90
21616;DHT22;10970;48.714;9.584;2023-06-19T05:08:49;21.90;99.90
21616;DHT22;10970;48.714;9.584;2023-06-19T05:11:14;21.90;99.90
21616;DHT22;10970;48.714;9.584;2023-06-19T05:13:40;22.00;99.90
21616;DHT22;10970;48.714;9.584;2023-06-19T05:16:06;22.00;99.90
21616;DHT22;10970;48.714;9.584;2023-06-19T05:18:31;22.10;99.90
21616;DHT22;10970;48.714;9.584;2023-06-19T05:20:57;22.10;99.90
21616;DHT22;10970;48.714;9.584;2023-06-19T05:23:23;22.00;99.90
21616;DHT22;10970;48.714;9.584;2023-06-19T05:25:48;22.00;99.90
21616;DHT22;10970;48.714;9.584;2023-06-19T05:28:14;22.00;99.90
21616;DHT22;10970;48.714;9.584;2023-06-19T05:30:39;22.10;99.90
21616;DHT22;10970;48.714;9.584;2023-06-19T05:33:05;22.20;99.90
21616;DHT22;10970;48.714;9.584;2023-06-19T05:35:31;22.30;99.90
21616;DHT22;10970;48.714;9.584;2023-06-19T05:37:57;22.40;99.90
21616;DHT22;10970;48.714;9.584;2023-06-19T05:40:23;22.50;99.90
21616;DHT22;10970;48.714;9.584;2023-06-19T05:42:49;22.60;99.90
21616;DHT22;10970;48.714;9.584;2023-06-19T05:45:14;22.60;99.90
21616;DHT22;10970;48.714;9.584;2023-06-19T05:47:40;22.60;99.90
21616;DHT22;10970;48.714;9.584;2023-06-19T05:50:06;22.70;99.90
21616;DHT22;10970;48.714;9.584;2023-06-19T05:52:32;22.70;99.90
21616;DHT22;10970;48.714;9.584;2023-06-19T05:54:57;22.70;99.90
21616;DHT22;10970;48.714;9.584;2023-06-19T05:57:24;22.70;99.90
21616;DHT22;10970;48.714;9.584;2023-06-19T05:59:50;22.80;99.90
21616;DHT22;10970;48.714;9.584;2023-06-19T06:02:17;22.80;99.90
21616;DHT22;10970;48.714;9.584;2023-06-19T06:04:44;22.80;99.90
21616;DHT22;10970;48.714;9.584;2023-06-19T06:07:09;23.00;99.90
21616;DHT22;10970;48.714;9.584;2023-06-19T06:09:35;23.00;99.90
21616;DHT22;10970;48.714;9.584;2023-06-19T06:12:01;23.10;99.90
21616;DHT22;10970;48.714;9.584;2023-06-19T06:14:27;23.20;99.90
21616;DHT22;10970;48.714;9.584;2023-06-19T06:16:53;23.20;99.90
21616;DHT22;10970;48.714;9.584;2023-06-19T06:19:22;23.20;99.90
21616;DHT22;10970;48.714;9.584;2023-06-19T06:21:50;23.20;99.90
21616;DHT22;10970;48.714;9.584;2023-06-19T06:24:16;23.10;99.90
21616;DHT22;10970;48.714;9.584;2023-06-19T06:26:42;23.20;99.90
21616;DHT22;10970;48.714;9.584;2023-06-19T06:29:08;23.20;99.90
21616;DHT22;10970;48.714;9.584;2023-06-19T06:31:34;23.40;99.90
21616;DHT22;10970;48.714;9.584;2023-06-19T06:34:00;23.50;99.90
21616;DHT22;10970;48.714;9.584;2023-06-19T06:36:26;23.60;99.90
21616;DHT22;10970;48.714;9.584;2023-06-19T06:38:51;23.70;99.90
21616;DHT22;10970;48.714;9.584;2023-06-19T06:41:17;24.00;99.90
21616;DHT22;10970;48.714;9.584;2023-06-19T06:43:43;24.10;99.90
21616;DHT22;10970;48.714;9.584;2023-06-19T06:46:09;24.20;99.90
21616;DHT22;10970;48.714;9.584;2023-06-19T06:48:36;24.30;99.90
21616;DHT22;10970;48.714;9.584;2023-06-19T06:51:02;24.50;99.90
21616;DHT22;10970;48.714;9.584;2023-06-19T06:53:28;24.50;99.90
21616;DHT22;10970;48.714;9.584;2023-06-19T06:55:57;24.50;99.90
21616;DHT22;10970;48.714;9.584;2023-06-19T06:58:24;24.40;99.90
21616;DHT22;10970;48.714;9.584;2023-06-19T07:00:50;24.20;99.90
21616;DHT22;10970;48.714;9.584;2023-06-19T07:03:17;24.20;99.90
21616;DHT22;10970;48.714;9.584;2023-06-19T07:05:43;24.20;99.90
21616;DHT22;10970;48.714;9.584;2023-06-19T07:08:12;24.30;99.90
21616;DHT22;10970;48.714;9.584;2023-06-19T07:10:38;24.50;99.90
21616;DHT22;10970;48.714;9.584;2023-06-19T07:13:03;24.80;99.90
21616;DHT22;10970;48.714;9.584;2023-06-19T07:15:29;25.10;99.90
21616;DHT22;10970;48.714;9.584;2023-06-19T07:17:56;25.50;99.90
21616;DHT22;10970;48.714;9.584;2023-06-19T07:20:22;25.50;99.90
21616;DHT22;10970;48.714;9.584;2023-06-19T07:22:49;25.70;99.90
21616;DHT22;10970;48.714;9.584;2023-06-19T07:25:15;26.20;99.90
21616;DHT22;10970;48.714;9.584;2023-06-19T07:27:41;26.80;99.90
21616;DHT22;10970;48.714;9.584;2023-06-19T07:30:07;27.30;99.90
21616;DHT22;10970;48.714;9.584;2023-06-19T07:32:33;27.80;99.90
21616;DHT22;10970;48.714;9.584;2023-06-19T07:34:59;28.00;99.90
21616;DHT22;10970;48.714;9.584;2023-06-19T07:37:24;28.00;99.90
21616;DHT22;10970;48.714;9.584;2023-06-19T07:39:51;28.20;99.90
21616;DHT22;10970;48.714;9.584;2023-06-19T07:42:18;28.10;99.90
21616;DHT22;10970;48.714;9.584;2023-06-19T07:44:45;27.90;99.90
21616;DHT22;10970;48.714;9.584;2023-06-19T07:47:11;27.60;99.90
21616;DHT22;10970;48.714;9.584;2023-06-19T07:49:37;27.20;99.90
21616;DHT22;10970;48.714;9.584;2023-06-19T07:52:04;26.90;99.90
21616;DHT22;10970;48.714;9.584;2023-06-19T07:54:30;26.60;99.90
21616;DHT22;10970;48.714;9.584;2023-06-19T07:56:56;26.60;99.90
21616;DHT22;10970;48.714;9.584;2023-06-19T07:59:21;27.50;99.90
21616;DHT22;10970;48.714;9.584;2023-06-19T08:01:48;28.40;99.90
21616;DHT22;10970;48.714;9.584;2023-06-19T08:04:14;28.70;99.90
21616;DHT22;10970;48.714;9.584;2023-06-19T08:06:40;29.00;99.90
21616;DHT22;10970;48.714;9.584;2023-06-19T08:09:05;29.20;99.90
21616;DHT22;10970;48.714;9.584;2023-06-19T08:11:31;29.30;99.90
21616;DHT22;10970;48.714;9.584;2023-06-19T08:13:57;29.50;99.90
21616;DHT22;10970;48.714;9.584;2023-06-19T08:16:25;29.60;99.90
21616;DHT22;10970;48.714;9.584;2023-06-19T08:18:51;29.70;99.90
21616;DHT22;10970;48.714;9.584;2023-06-19T08:21:16;29.50;99.90
21616;DHT22;10970;48.714;9.584;2023-06-19T08:23:42;29.30;99.90
21616;DHT22;10970;48.714;9.584;2023-06-19T08:26:10;28.80;99.90
21616;DHT22;10970;48.714;9.584;2023-06-19T08:28:36;28.40;99.90
21616;DHT22;10970;48.714;9.584;2023-06-19T08:31:02;28.10;99.90
21616;DHT22;10970;48.714;9.584;2023-06-19T08:33:28;28.00;99.90
21616;DHT22;10970;48.714;9.584;2023-06-19T08:35:54;27.90;99.90
21616;DHT22;10970;48.714;9.584;2023-06-19T08:38:19;27.90;99.90
21616;DHT22;10970;48.714;9.584;2023-06-19T08:40:45;28.50;99.90
21616;DHT22;10970;48.714;9.584;2023-06-19T08:43:11;29.10;99.90
21616;DHT22;10970;48.714;9.584;2023-06-19T08:45:37;30.20;99.90
21616;DHT22;10970;48.714;9.584;2023-06-19T08:48:04;31.00;99.90
21616;DHT22;10970;48.714;9.584;2023-06-19T08:50:31;30.80;99.90
21616;DHT22;10970;48.714;9.584;2023-06-19T08:52:57;30.70;99.90
21616;DHT22;10970;48.714;9.584;2023-06-19T08:55:24;30.30;99.90
21616;DHT22;10970;48.714;9.584;2023-06-19T08:57:50;30.50;99.90
21616;DHT22;10970;48.714;9.584;2023-06-19T09:00:28;30.50;99.90
21616;DHT22;10970;48.714;9.584;2023-06-19T09:03:00;30.30;99.90
21616;DHT22;10970;48.714;9.584;2023-06-19T09:05:29;30.30;99.90
21616;DHT22;10970;48.714;9.584;2023-06-19T09:07:57;30.70;99.90
21616;DHT22;10970;48.714;9.584;2023-06-19T09:10:27;30.90;99.90
21616;DHT22;10970;48.714;9.584;2023-06-19T09:13:00;31.20;99.90
21616;DHT22;10970;48.714;9.584;2023-06-19T09:15:28;31.30;99.90
21616;DHT22;10970;48.714;9.584;2023-06-19T09:18:09;31.20;99.90
21616;DHT22;10970;48.714;9.584;2023-06-19T09:20:39;31.20;99.90
21616;DHT22;10970;48.714;9.584;2023-06-19T09:23:10;31.20;99.90
21616;DHT22;10970;48.714;9.584;2023-06-19T09:25:47;31.00;99.90
21616;DHT22;10970;48.714;9.584;2023-06-19T09:28:21;31.20;99.90
21616;DHT22;10970;48.714;9.584;2023-06-19T09:30:55;31.30;99.90
21616;DHT22;10970;48.714;9.584;2023-06-19T09:33:22;30.80;99.90
21616;DHT22;10970;48.714;9.584;2023-06-19T09:35:49;30.20;99.90
21616;DHT22;10970;48.714;9.584;2023-06-19T09:38:17;29.50;99.90
21616;DHT22;10970;48.714;9.584;2023-06-19T09:40:47;29.00;99.90
21616;DHT22;10970;48.714;9.584;2023-06-19T09:43:16;28.70;99.90
21616;DHT22;10970;48.714;9.584;2023-06-19T09:45:47;28.90;99.90
21616;DHT22;10970;48.714;9.584;2023-06-19T09:48:15;28.90;99.90
21616;DHT22;10970;48.714;9.584;2023-06-19T09:50:45;29.20;99.90
21616;DHT22;10970;48.714;9.584;2023-06-19T09:53:12;29.60;99.90
21616;DHT22;10970;48.714;9.584;2023-06-19T09:55:38;30.10;99.90
21616;DHT22;10970;48.714;9.584;2023-06-19T09:58:06;30.50;99.90
21616;DHT22;10970;48.714;9.584;2023-06-19T10:00:33;30.90;99.90
21616;DHT22;10970;48.714;9.584;2023-06-19T10:03:00;31.20;99.90
21616;DHT22;10970;48.714;9.584;2023-06-19T10:05:29;31.30;99.90
21616;DHT22;10970;48.714;9.584;2023-06-19T10:07:55;31.50;99.90
21616;DHT22;10970;48.714;9.584;2023-06-19T10:10:26;31.70;99.90
21616;DHT22;10970;48.714;9.584;2023-06-19T10:12:59;32.00;99.90
21616;DHT22;10970;48.714;9.584;2023-06-19T10:15:27;31.60;99.90
21616;DHT22;10970;48.714;9.584;2023-06-19T10:18:03;31.70;99.90
21616;DHT22;10970;48.714;9.584;2023-06-19T10:20:35;31.70;99.90
21616;DHT22;10970;48.714;9.584;2023-06-19T10:23:21;31.50;99.90
21616;DHT22;10970;48.714;9.584;2023-06-19T10:31:02;31.50;99.90
21616;DHT22;10970;48.714;9.584;2023-06-19T10:33:30;31.00;99.90
21616;DHT22;10970;48.714;9.584;2023-06-19T10:35:58;31.00;99.90
21616;DHT22;10970;48.714;9.584;2023-06-19T10:38:25;31.00;99.90
21616;DHT22;10970;48.714;9.584;2023-06-19T10:40:51;31.00;99.90
21616;DHT22;10970;48.714;9.584;2023-06-19T10:43:21;31.10;99.90
21616;DHT22;10970;48.714;9.584;2023-06-19T10:45:50;31.00;99.90
21616;DHT22;10970;48.714;9.584;2023-06-19T10:48:24;31.20;99.90
21616;DHT22;10970;48.714;9.584;2023-06-19T10:50:50;31.30;99.90
21616;DHT22;10970;48.714;9.584;2023-06-19T10:53:27;31.20;99.90
21616;DHT22;10970;48.714;9.584;2023-06-19T10:55:57;31.10;99.90
21616;DHT22;10970;48.714;9.584;2023-06-19T10:58:24;31.00;99.90
21616;DHT22;10970;48.714;9.584;2023-06-19T11:00:50;30.60;99.90
21616;DHT22;10970;48.714;9.584;2023-06-19T11:03:16;30.90;99.90
21616;DHT22;10970;48.714;9.584;2023-06-19T11:05:44;31.10;99.90
21616;DHT22;10970;48.714;9.584;2023-06-19T11:08:10;31.30;99.90
21616;DHT22;10970;48.714;9.584;2023-06-19T11:10:36;31.30;99.90
21616;DHT22;10970;48.714;9.584;2023-06-19T11:13:02;31.30;99.90
21616;DHT22;10970;48.714;9.584;2023-06-19T11:15:32;30.70;99.90
21616;DHT22;10970;48.714;9.584;2023-06-19T11:17:58;30.40;99.90
21616;DHT22;10970;48.714;9.584;2023-06-19T11:20:25;30.30;99.90
21616;DHT22;10970;48.714;9.584;2023-06-19T11:22:55;30.30;99.90
21616;DHT22;10970;48.714;9.584;2023-06-19T11:25:22;30.20;99.90
21616;DHT22;10970;48.714;9.584;2023-06-19T11:27:48;30.00;99.90
21616;DHT22;10970;48.714;9.584;2023-06-19T11:30:18;30.40;99.90
21616;DHT22;10970;48.714;9.584;2023-06-19T11:32:46;30.80;99.90
21616;DHT22;10970;48.714;9.584;2023-06-19T11:35:16;31.00;99.90
21616;DHT22;10970;48.714;9.584;2023-06-19T11:37:43;31.00;99.90
21616;DHT22;10970;48.714;9.584;2023-06-19T11:40:11;30.70;99.90
21616;DHT22;10970;48.714;9.584;2023-06-19T11:43:04;30.70;99.90
21616;DHT22;10970;48.714;9.584;2023-06-19T11:45:29;30.70;99.90
21616;DHT22;10970;48.714;9.584;2023-06-19T11:47:55;30.50;99.90
21616;DHT22;10970;48.714;9.584;2023-06-19T11:50:27;30.50;99.90
21616;DHT22;10970;48.714;9.584;2023-06-19T11:52:53;30.60;99.90
21616;DHT22;10970;48.714;9.584;2023-06-19T11:55:18;30.80;99.90
21616;DHT22;10970;48.714;9.584;2023-06-19T11:57:44;31.00;99.90
21616;DHT22;10970;48.714;9.584;2023-06-19T12:00:15;31.20;99.90
21616;DHT22;10970;48.714;9.584;2023-06-19T12:02:41;31.40;99.90
21616;DHT22;10970;48.714;9.584;2023-06-19T12:05:07;31.60;99.90
21616;DHT22;10970;48.714;9.584;2023-06-19T12:07:33;31.60;99.90
21616;DHT22;10970;48.714;9.584;2023-06-19T12:09:59;31.70;99.90
21616;DHT22;10970;48.714;9.584;2023-06-19T12:12:25;31.70;99.90
21616;DHT22;10970;48.714;9.584;2023-06-19T12:14:51;31.80;99.90
21616;DHT22;10970;48.714;9.584;2023-06-19T12:17:17;32.10;99.90
21616;DHT22;10970;48.714;9.584;2023-06-19T12:19:43;32.00;99.90
21616;DHT22;10970;48.714;9.584;2023-06-19T12:22:08;32.00;99.90
21616;DHT22;10970;48.714;9.584;2023-06-19T12:24:34;32.10;99.90
21616;DHT22;10970;48.714;9.584;2023-06-19T12:27:00;32.00;99.90
21616;DHT22;10970;48.714;9.584;2023-06-19T12:29:26;31.80;99.90
21616;DHT22;10970;48.714;9.584;2023-06-19T12:31:52;31.60;99.90
21616;DHT22;10970;48.714;9.584;2023-06-19T12:34:18;31.40;99.90
21616;DHT22;10970;48.714;9.584;2023-06-19T12:36:43;31.50;99.90
21616;DHT22;10970;48.714;9.584;2023-06-19T12:39:09;31.50;99.90
21616;DHT22;10970;48.714;9.584;2023-06-19T12:41:41;31.50;99.90
21616;DHT22;10970;48.714;9.584;2023-06-19T12:44:07;31.60;99.90
21616;DHT22;10970;48.714;9.584;2023-06-19T12:46:33;31.50;99.90
21616;DHT22;10970;48.714;9.584;2023-06-19T12:48:58;31.50;99.90
21616;DHT22;10970;48.714;9.584;2023-06-19T12:51:24;31.30;99.90
21616;DHT22;10970;48.714;9.584;2023-06-19T12:53:50;31.40;99.90
21616;DHT22;10970;48.714;9.584;2023-06-19T12:56:15;31.20;99.90
21616;DHT22;10970;48.714;9.584;2023-06-19T12:58:41;31.30;99.90
21616;DHT22;10970;48.714;9.584;2023-06-19T13:01:07;31.40;99.90
21616;DHT22;10970;48.714;9.584;2023-06-19T13:03:32;31.50;99.90
21616;DHT22;10970;48.714;9.584;2023-06-19T13:05:58;31.70;99.90
21616;DHT22;10970;48.714;9.584;2023-06-19T13:08:24;31.90;99.90
21616;DHT22;10970;48.714;9.584;2023-06-19T13:10:50;32.10;99.90
21616;DHT22;10970;48.714;9.584;2023-06-19T13:13:15;32.10;99.90
21616;DHT22;10970;48.714;9.584;2023-06-19T13:15:41;32.20;99.90
21616;DHT22;10970;48.714;9.584;2023-06-19T13:18:07;32.00;99.90
21616;DHT22;10970;48.714;9.584;2023-06-19T13:20:32;31.80;99.90
21616;DHT22;10970;48.714;9.584;2023-06-19T13:22:58;31.90;99.90
21616;DHT22;10970;48.714;9.584;2023-06-19T13:25:24;32.00;99.90
21616;DHT22;10970;48.714;9.584;2023-06-19T13:27:49;31.50;99.90
21616;DHT22;10970;48.714;9.584;2023-06-19T13:30:15;31.30;99.90
21616;DHT22;10970;48.714;9.584;2023-06-19T13:32:41;31.50;99.90
21616;DHT22;10970;48.714;9.584;2023-06-19T13:35:08;31.30;99.90
21616;DHT22;10970;48.714;9.584;2023-06-19T13:37:35;31.30;99.90
21616;DHT22;10970;48.714;9.584;2023-06-19T13:40:01;31.50;99.90
21616;DHT22;10970;48.714;9.584;2023-06-19T13:42:30;31.80;99.90
21616;DHT22;10970;48.714;9.584;2023-06-19T13:44:56;31.70;99.90
21616;DHT22;10970;48.714;9.584;2023-06-19T13:47:22;31.50;99.90
21616;DHT22;10970;48.714;9.584;2023-06-19T13:49:50;31.30;99.90
21616;DHT22;10970;48.714;9.584;2023-06-19T13:52:16;31.30;99.90
21616;DHT22;10970;48.714;9.584;2023-06-19T13:54:42;31.20;99.90
21616;DHT22;10970;48.714;9.584;2023-06-19T13:57:07;31.00;99.90
21616;DHT22;10970;48.714;9.584;2023-06-19T13:59:34;31.00;99.90
21616;DHT22;10970;48.714;9.584;2023-06-19T14:02:00;30.90;99.90
21616;DHT22;10970;48.714;9.584;2023-06-19T14:04:28;30.80;99.90
21616;DHT22;10970;48.714;9.584;2023-06-19T14:06:54;30.70;99.90
21616;DHT22;10970;48.714;9.584;2023-06-19T14:09:20;30.40;99.90
21616;DHT22;10970;48.714;9.584;2023-06-19T14:11:46;30.30;99.90
21616;DHT22;10970;48.714;9.584;2023-06-19T14:14:11;30.50;99.90
21616;DHT22;10970;48.714;9.584;2023-06-19T14:16:37;30.80;99.90
21616;DHT22;10970;48.714;9.584;2023-06-19T14:19:03;31.00;99.90
21616;DHT22;10970;48.714;9.584;2023-06-19T14:21:28;31.10;99.90
21616;DHT22;10970;48.714;9.584;2023-06-19T14:23:54;31.30;99.90
21616;DHT22;10970;48.714;9.584;2023-06-19T14:26:20;31.50;99.90
21616;DHT22;10970;48.714;9.584;2023-06-19T14:28:46;31.50;99.90
21616;DHT22;10970;48.714;9.584;2023-06-19T14:31:12;31.30;99.90
21616;DHT22;10970;48.714;9.584;2023-06-19T14:33:38;31.20;99.90
21616;DHT22;10970;48.714;9.584;2023-06-19T14:36:04;31.30;99.90
21616;DHT22;10970;48.714;9.584;2023-06-19T14:38:29;31.40;99.90
21616;DHT22;10970;48.714;9.584;2023-06-19T14:41:00;31.50;99.90
21616;DHT22;10970;48.714;9.584;2023-06-19T14:43:27;31.50;99.90
21616;DHT22;10970;48.714;9.584;2023-06-19T14:45:52;31.40;99.90
21616;DHT22;10970;48.714;9.584;2023-06-19T14:48:18;31.30;99.90
21616;DHT22;10970;48.714;9.584;2023-06-19T14:50:44;31.30;99.90
21616;DHT22;10970;48.714;9.584;2023-06-19T14:53:10;31.30;99.90
21616;DHT22;10970;48.714;9.584;2023-06-19T14:55:36;31.20;99.90
21616;DHT22;10970;48.714;9.584;2023-06-19T14:58:04;31.20;99.90
21616;DHT22;10970;48.714;9.584;2023-06-19T15:00:30;31.40;99.90
21616;DHT22;10970;48.714;9.584;2023-06-19T15:02:56;31.50;99.90
21616;DHT22;10970;48.714;9.584;2023-06-19T15:05:22;31.50;99.90
21616;DHT22;10970;48.714;9.584;2023-06-19T15:07:47;31.30;99.90
21616;DHT22;10970;48.714;9.584;2023-06-19T15:10:13;31.10;99.90
21616;DHT22;10970;48.714;9.584;2023-06-19T15:12:39;31.10;99.90
21616;DHT22;10970;48.714;9.584;2023-06-19T15:15:05;31.20;99.90
21616;DHT22;10970;48.714;9.584;2023-06-19T15:17:31;31.30;99.90
21616;DHT22;10970;48.714;9.584;2023-06-19T15:19:57;31.60;99.90
21616;DHT22;10970;48.714;9.584;2023-06-19T15:22:23;31.80;99.90
21616;DHT22;10970;48.714;9.584;2023-06-19T15:24:48;31.80;99.90
21616;DHT22;10970;48.714;9.584;2023-06-19T15:27:14;31.80;99.90
21616;DHT22;10970;48.714;9.584;2023-06-19T15:29:39;32.00;99.90
21616;DHT22;10970;48.714;9.584;2023-06-19T15:32:05;31.90;99.90